| time (UTC) | temp F | wind direction | speed knots | gust knots | rain 1hr in | rain 24hr in | rain mn in | humidity % | barometer mb |
| 20260510140017 | 71 | 32 | 0.0 | 0.0 | 0.00 | 0.39 | 0.00 | 90 | 1018.0 |
| 20260510134516 | 71 | 32 | 0.0 | 0.0 | 0.00 | 0.39 | 0.00 | 90 | 1017.8 |
| 20260510133006 | 70 | 32 | 0.0 | 0.9 | 0.00 | 0.39 | 0.00 | 90 | 1017.9 |
| 20260510131521 | 70 | 32 | 0.0 | 0.9 | 0.00 | 0.39 | 0.00 | 90 | 1017.7 |
| 20260510130011 | 70 | 32 | 0.0 | 2.6 | 0.00 | 0.39 | 0.00 | 90 | 1017.7 |
| 20260510124519 | 70 | 36 | 0.0 | 2.6 | 0.00 | 0.39 | 0.00 | 90 | 1017.4 |
| 20260510123006 | 70 | 36 | 0.9 | 4.3 | 0.00 | 0.39 | 0.00 | 90 | 1017.2 |
| 20260510121514 | 70 | 37 | 0.0 | 2.6 | 0.00 | 0.39 | 0.00 | 90 | 1017.0 |
| 20260510120012 | 70 | 37 | 0.0 | 0.0 | 0.00 | 0.39 | 0.00 | 90 | 1016.7 |
| 20260510114521 | 69 | 37 | 0.0 | 0.0 | 0.00 | 0.39 | 0.00 | 90 | 1016.6 |
| 20260510113014 | 68 | 37 | 0.0 | 0.0 | 0.00 | 0.39 | 0.00 | 90 | 1016.5 |
| 20260510111512 | 68 | 37 | 0.0 | 0.0 | 0.00 | 0.39 | 0.00 | 90 | 1016.1 |
| 20260510104518 | 68 | 37 | 0.0 | 0.0 | 0.00 | 0.39 | 0.00 | 90 | 1016.0 |
| 20260510103027 | 68 | 37 | 0.0 | 0.0 | 0.00 | 0.39 | 0.00 | 90 | 1015.7 |
| 20260510101519 | 69 | 37 | 0.0 | 0.0 | 0.00 | 0.39 | 0.00 | 90 | 1015.5 |
| 20260510100031 | 69 | 37 | 0.0 | 0.0 | 0.00 | 0.39 | 0.00 | 90 | 1015.4 |
| 20260510094517 | 69 | 37 | 0.0 | 0.0 | 0.00 | 0.39 | 0.00 | 90 | 1015.2 |
| 20260510093017 | 69 | 37 | 0.0 | 0.0 | 0.00 | 0.40 | 0.00 | 90 | 1015.2 |
| 20260510091525 | 69 | 37 | 0.0 | 0.0 | 0.00 | 0.40 | 0.00 | 90 | 1015.0 |
| 20260510090025 | 69 | 37 | 0.0 | 0.0 | 0.00 | 0.40 | 0.00 | 90 | 1014.7 |
| 20260510084526 | 68 | 37 | 0.0 | 0.0 | 0.00 | 0.40 | 0.00 | 90 | 1014.6 |
| 20260510083021 | 68 | 37 | 0.0 | 0.0 | 0.00 | 0.40 | 0.00 | 90 | 1014.4 |
| 20260510080025 | 68 | 37 | 0.0 | 0.0 | 0.00 | 0.40 | 0.00 | 89 | 1014.7 |
| 20260510074525 | 68 | 37 | 0.0 | 0.0 | 0.00 | 0.40 | 0.00 | 89 | 1014.5 |
| 20260510073023 | 68 | 37 | 0.0 | 0.0 | 0.00 | 0.40 | 0.00 | 90 | 1014.4 |
| 20260510071522 | 68 | 37 | 0.0 | 0.0 | 0.00 | 0.40 | 0.00 | 90 | 1014.5 |
| 20260510070028 | 68 | 37 | 0.0 | 0.0 | 0.00 | 0.40 | 0.00 | 89 | 1014.4 |
| 20260510064521 | 68 | 37 | 0.0 | 0.0 | 0.00 | 0.40 | 0.00 | 89 | 1014.5 |
| 20260510063021 | 68 | 37 | 0.0 | 0.0 | 0.00 | 0.40 | 0.00 | 89 | 1014.5 |
| 20260510061517 | 69 | 37 | 0.0 | 0.0 | 0.00 | 0.40 | 0.00 | 89 | 1014.7 |
| 20260510060020 | 69 | 37 | 0.0 | 0.0 | 0.00 | 0.40 | 0.00 | 89 | 1014.9 |
| 20260510054504 | 69 | 37 | 0.0 | 0.0 | 0.00 | 0.40 | 0.00 | 89 | 1015.2 |
| 20260510053008 | 69 | 37 | 0.0 | 0.0 | 0.00 | 0.40 | 0.00 | 89 | 1015.3 |
| 20260510051505 | 69 | 37 | 0.0 | 0.0 | 0.00 | 0.40 | 0.00 | 89 | 1015.6 |
| 20260510050019 | 69 | 37 | 0.0 | 0.0 | 0.00 | 0.40 | 0.00 | 89 | 1015.8 |
| 20260510044529 | 69 | 37 | 0.0 | 0.0 | 0.00 | 0.40 | 0.00 | 89 | 1015.8 |
| 20260510043008 | 69 | 37 | 0.0 | 0.0 | 0.00 | 0.40 | 0.00 | 89 | 1015.8 |
| 20260510041513 | 69 | 37 | 0.0 | 0.0 | 0.00 | 0.41 | 0.00 | 89 | 1015.8 |
| 20260510040011 | 69 | 37 | 0.0 | 0.0 | 0.00 | 0.43 | 0.00 | 89 | 1015.9 |
| 20260510034507 | 69 | 37 | 0.0 | 0.0 | 0.00 | 0.45 | 0.43 | 89 | 1016.0 |
| 20260510033004 | 69 | 37 | 0.0 | 0.0 | 0.00 | 0.49 | 0.43 | 89 | 1016.0 |
| 20260510031511 | 69 | 37 | 0.0 | 0.0 | 0.00 | 0.64 | 0.43 | 89 | 1016.0 |
| 20260510030014 | 69 | 37 | 0.0 | 0.0 | 0.00 | 0.64 | 0.43 | 89 | 1016.0 |
| 20260510024518 | 69 | 37 | 0.0 | 0.0 | 0.00 | 0.64 | 0.43 | 88 | 1015.5 |
| 20260510023014 | 69 | 37 | 0.0 | 0.0 | 0.00 | 0.64 | 0.43 | 88 | 1015.3 |
| 20260510020008 | 69 | 37 | 0.0 | 0.9 | 0.00 | 0.64 | 0.43 | 88 | 1014.8 |
| 20260510014515 | 69 | 37 | 0.0 | 1.7 | 0.01 | 0.64 | 0.43 | 88 | 1014.5 |
| 20260510013018 | 69 | 37 | 0.0 | 1.7 | 0.01 | 0.64 | 0.43 | 88 | 1015.0 |
| 20260510011533 | 69 | 37 | 0.0 | 0.0 | 0.01 | 0.64 | 0.43 | 88 | 1014.4 |
| 20260510010005 | 69 | 37 | 0.0 | 0.0 | 0.01 | 0.64 | 0.43 | 88 | 1014.5 |
| 20260510004512 | 69 | 37 | 0.0 | 0.9 | 0.00 | 0.63 | 0.42 | 88 | 1014.7 |
| 20260510003009 | 70 | 37 | 0.0 | 0.0 | 0.00 | 0.63 | 0.42 | 88 | 1014.7 |
| 20260510001520 | 70 | 37 | 0.0 | 0.0 | 0.00 | 0.63 | 0.42 | 88 | 1014.8 |
| 20260510000046 | 70 | 37 | 0.0 | 0.0 | 0.01 | 0.63 | 0.42 | 87 | 1014.6 |
| 20260509234510 | 70 | 37 | 0.0 | 0.0 | 0.01 | 0.63 | 0.42 | 87 | 1014.7 |
| 20260509233015 | 70 | 37 | 0.0 | 0.0 | 0.01 | 0.63 | 0.42 | 87 | 1014.7 |
| 20260509231516 | 70 | 37 | 0.0 | 1.7 | 0.01 | 0.63 | 0.42 | 87 | 1014.7 |
| 20260509224525 | 70 | 37 | 0.0 | 2.6 | 0.00 | 0.62 | 0.41 | 87 | 1014.6 |
| 20260509223010 | 70 | 37 | 0.9 | 3.5 | 0.00 | 0.62 | 0.41 | 87 | 1014.7 |
| 20260509221514 | 70 | 30 | 0.0 | 5.2 | 0.00 | 0.62 | 0.41 | 87 | 1014.6 |
| 20260509220023 | 70 | 29 | 0.0 | 4.3 | 0.00 | 0.62 | 0.41 | 86 | 1014.7 |
| 20260509214526 | 70 | 21 | 2.6 | 7.0 | 0.00 | 0.62 | 0.41 | 86 | 1014.4 |
| 20260509211517 | 71 | 31 | 0.0 | 4.3 | 0.01 | 0.62 | 0.41 | 85 | 1014.4 |
| 20260509210018 | 72 | 56 | 3.5 | 9.6 | 0.01 | 0.62 | 0.41 | 85 | 1014.3 |
| 20260509204525 | 73 | 51 | 0.9 | 2.6 | 0.01 | 0.62 | 0.41 | 85 | 1014.2 |
| 20260509203007 | 73 | 60 | 0.0 | 0.0 | 0.02 | 0.62 | 0.41 | 84 | 1014.3 |
| 20260509201511 | 73 | 60 | 0.0 | 0.0 | 0.34 | 0.61 | 0.40 | 83 | 1014.2 |
| 20260509200014 | 74 | 60 | 0.0 | 0.0 | 0.36 | 0.61 | 0.40 | 82 | 1014.1 |
| 20260509194517 | 74 | 60 | 0.0 | 2.6 | 0.36 | 0.61 | 0.40 | 81 | 1014.2 |
| 20260509193013 | 76 | 43 | 3.5 | 7.0 | 0.35 | 0.60 | 0.39 | 78 | 1013.9 |
| 20260509191510 | 78 | 210 | 0.0 | 0.9 | 0.02 | 0.27 | 0.06 | 74 | 1014.1 |
| 20260509190013 | 79 | 210 | 0.0 | 0.0 | 0.00 | 0.25 | 0.04 | 71 | 1013.9 |
| 20260509184527 | 80 | 210 | 0.0 | 0.0 | 0.00 | 0.25 | 0.04 | 70 | 1014.1 |
| 20260509183022 | 80 | 210 | 0.0 | 2.6 | 0.00 | 0.25 | 0.04 | 69 | 1014.1 |
| 20260509180013 | 80 | 208 | 0.0 | 2.6 | 0.00 | 0.25 | 0.04 | 71 | 1014.3 |
| 20260509174514 | 79 | 89 | 0.0 | 2.6 | 0.00 | 0.25 | 0.04 | 72 | 1014.6 |
| 20260509173009 | 78 | 71 | 0.9 | 2.6 | 0.00 | 0.25 | 0.04 | 73 | 1014.6 |
| 20260509171523 | 78 | 71 | 0.0 | 3.5 | 0.00 | 0.25 | 0.04 | 73 | 1014.6 |
| 20260509170022 | 77 | 71 | 0.9 | 4.3 | 0.00 | 0.25 | 0.04 | 75 | 1014.6 |
| 20260509164512 | 76 | 83 | 0.0 | 2.6 | 0.00 | 0.25 | 0.04 | 76 | 1014.7 |
| 20260509163016 | 76 | 79 | 0.9 | 2.6 | 0.00 | 0.25 | 0.04 | 77 | 1014.7 |
| 20260509161512 | 75 | 79 | 0.0 | 1.7 | 0.00 | 0.25 | 0.04 | 78 | 1015.1 |
| 20260509160013 | 74 | 79 | 0.0 | 2.6 | 0.00 | 0.25 | 0.04 | 78 | 1015.1 |
| 20260509154524 | 74 | 79 | 0.0 | 3.5 | 0.00 | 0.25 | 0.04 | 78 | 1014.8 |
| 20260509153029 | 74 | 180 | 0.9 | 2.6 | 0.00 | 0.25 | 0.04 | 79 | 1015.1 |
| 20260509151520 | 74 | 185 | 0.0 | 1.7 | 0.00 | 0.25 | 0.04 | 80 | 1015.4 |
| 20260509150028 | 73 | 189 | 0.9 | 2.6 | 0.00 | 0.25 | 0.04 | 82 | 1015.3 |
| 20260509144527 | 72 | 185 | 0.0 | 1.7 | 0.00 | 0.25 | 0.04 | 84 | 1015.3 |
| 20260509143019 | 72 | 185 | 0.0 | 2.6 | 0.00 | 0.25 | 0.04 | 85 | 1015.2 |